createdAt,value
2018-11-05T00:01:25.510Z,61.87
2018-11-05T00:04:03.755Z,48.27
2018-11-05T00:06:37.877Z,51.77
2018-11-05T00:09:13.604Z,54.43
2018-11-05T00:11:48.197Z,60.83
2018-11-05T00:14:23.211Z,59.13
2018-11-05T00:16:57.369Z,58.83
2018-11-05T00:19:31.713Z,60.07
2018-11-05T00:22:08.149Z,66.47
2018-11-05T00:24:44.659Z,63.43
2018-11-05T00:27:19.459Z,66.50
2018-11-05T00:29:57.977Z,63.63
2018-11-05T00:32:32.999Z,58.77
2018-11-05T00:35:11.647Z,67.80
2018-11-05T00:37:51.985Z,60.20
2018-11-05T00:40:26.703Z,67.90
2018-11-05T00:43:05.279Z,64.93
2018-11-05T00:45:40.152Z,59.80
2018-11-05T00:48:18.850Z,61.63
2018-11-05T00:50:53.460Z,65.03
2018-11-05T00:53:31.984Z,61.27
2018-11-05T00:56:06.346Z,73.63
2018-11-05T00:58:40.709Z,59.17
2018-11-05T01:01:17.032Z,65.77
2018-11-05T01:03:53.283Z,70.27
2018-11-05T01:06:36.388Z,70.67
2018-11-05T01:09:10.976Z,78.13
2018-11-05T01:11:45.541Z,65.53
2018-11-05T01:14:19.898Z,70.07
2018-11-05T01:16:56.085Z,73.73
2018-11-05T01:19:32.196Z,76.27
2018-11-05T01:22:07.342Z,81.60
2018-11-05T01:24:41.563Z,78.07
2018-11-05T01:27:16.545Z,73.33
2018-11-05T01:29:54.912Z,70.70
2018-11-05T01:32:29.975Z,57.53
2018-11-05T01:35:06.547Z,52.17
2018-11-05T01:37:47.206Z,53.97
2018-11-05T01:40:23.752Z,57.10
2018-11-05T01:42:58.921Z,63.23
2018-11-05T01:45:37.219Z,69.53
2018-11-05T01:48:15.437Z,75.57
2018-11-05T01:50:50.683Z,70.17
2018-11-05T01:53:24.806Z,75.77
2018-11-05T01:56:03.906Z,78.07
2018-11-05T01:58:44.602Z,86.17
2018-11-05T02:01:18.512Z,90.37
2018-11-05T02:03:56.811Z,83.43
2018-11-05T02:06:37.153Z,80.93
2018-11-05T02:09:14.051Z,96.97
2018-11-05T02:11:49.248Z,80.07
2018-11-05T02:14:27.507Z,84.50
2018-11-05T02:17:02.390Z,90.43
2018-11-05T02:19:36.482Z,94.90
2018-11-05T02:22:13.101Z,79.63
2018-11-05T02:24:52.152Z,88.43
2018-11-05T02:27:28.861Z,85.47
2018-11-05T02:30:05.772Z,93.33
2018-11-05T02:32:44.606Z,89.30
2018-11-05T02:35:21.805Z,96.07
2018-11-05T02:38:04.090Z,92.97
2018-11-05T02:43:13.440Z,96.70
2018-11-05T02:45:48.599Z,90.57
2018-11-05T02:48:31.181Z,99.07
2018-11-05T02:51:12.381Z,91.97
2018-11-05T02:53:59.432Z,85.47
2018-11-05T02:56:35.120Z,89.50
2018-11-05T02:59:11.412Z,86.20
2018-11-05T03:01:49.794Z,80.73
2018-11-05T03:04:35.078Z,79.10
2018-11-05T03:07:13.916Z,90.13
2018-11-05T03:09:49.704Z,90.30
2018-11-05T03:12:25.468Z,80.20
2018-11-05T03:15:06.523Z,81.97
2018-11-05T03:17:42.096Z,71.60
2018-11-05T03:20:13.152Z,65.43
2018-11-05T03:22:53.455Z,72.83
2018-11-05T03:25:28.837Z,72.60
2018-11-05T03:28:04.101Z,75.37
2018-11-05T03:30:38.335Z,61.87
2018-11-05T03:33:14.183Z,65.27
2018-11-05T03:35:46.066Z,67.63
2018-11-05T03:38:23.570Z,67.67
2018-11-05T03:40:58.422Z,61.83
2018-11-05T03:43:39.353Z,64.57
2018-11-05T03:46:19.774Z,56.90
2018-11-05T03:48:54.942Z,60.63
2018-11-05T03:51:29.999Z,55.87
2018-11-05T03:54:04.286Z,57.17
2018-11-05T03:56:40.758Z,57.20
2018-11-05T03:59:12.418Z,67.63
2018-11-05T04:01:48.101Z,55.67
2018-11-05T04:04:24.100Z,59.63
2018-11-05T04:06:58.359Z,60.57
2018-11-05T04:12:29.249Z,53.13
2018-11-05T04:15:03.975Z,48.97
2018-11-05T04:17:36.066Z,45.77
2018-11-05T04:20:10.062Z,41.47
2018-11-05T04:22:45.354Z,43.30
2018-11-05T04:25:17.762Z,44.50
2018-11-05T04:27:52.239Z,47.30
2018-11-05T04:30:26.135Z,49.03
2018-11-05T04:33:01.032Z,52.80
2018-11-05T04:35:37.209Z,58.57
2018-11-05T04:38:12.403Z,62.93
2018-11-05T04:40:47.009Z,58.70
2018-11-05T04:43:21.325Z,61.00
2018-11-05T04:45:56.233Z,63.80
2018-11-05T04:48:34.219Z,56.87
2018-11-05T04:51:10.195Z,50.63
2018-11-05T04:53:44.345Z,50.13
2018-11-05T04:56:22.221Z,51.63
2018-11-05T04:58:56.246Z,53.07
2018-11-05T05:01:32.430Z,52.03
2018-11-05T05:04:12.792Z,56.77
2018-11-05T05:06:47.654Z,60.13
2018-11-05T05:09:22.483Z,54.47
2018-11-05T05:11:56.660Z,63.17
2018-11-05T05:14:26.405Z,48.47
2018-11-05T05:16:54.913Z,53.80
2018-11-05T05:19:31.424Z,56.27
2018-11-05T05:22:05.615Z,50.97
2018-11-05T05:24:41.383Z,45.93
2018-11-05T05:27:19.390Z,43.10
2018-11-05T05:29:54.608Z,50.13
2018-11-05T05:32:36.255Z,54.67
2018-11-05T05:35:13.058Z,53.80
2018-11-05T05:37:55.681Z,57.90
2018-11-05T05:40:33.702Z,63.43
2018-11-05T05:43:07.900Z,73.10
2018-11-05T05:45:42.024Z,81.33
2018-11-05T05:48:14.385Z,73.40
2018-11-05T05:50:49.010Z,74.03
2018-11-05T05:53:17.596Z,74.73
2018-11-05T05:55:46.190Z,68.33
2018-11-05T05:58:14.698Z,70.20
2018-11-05T06:00:43.266Z,83.60
2018-11-05T06:03:11.814Z,79.27
2018-11-05T06:05:46.109Z,76.63
2018-11-05T06:08:28.472Z,66.87
2018-11-05T06:11:03.061Z,71.17
2018-11-05T06:13:31.550Z,73.97
2018-11-05T06:16:00.185Z,71.23
2018-11-05T06:18:28.619Z,74.90
2018-11-05T06:20:57.138Z,80.60
2018-11-05T06:23:25.738Z,78.83
2018-11-05T06:26:01.076Z,72.17
2018-11-05T06:31:29.521Z,79.17
2018-11-05T06:34:05.676Z,81.20
2018-11-05T06:36:35.388Z,80.27
2018-11-05T06:39:11.162Z,74.27
2018-11-05T06:41:45.447Z,75.40
2018-11-05T06:44:20.092Z,82.53
2018-11-05T06:46:54.802Z,85.63
2018-11-05T06:49:29.117Z,79.07
2018-11-05T06:52:07.222Z,68.77
2018-11-05T06:54:45.582Z,57.33
2018-11-05T06:57:19.867Z,54.93
2018-11-05T06:59:50.611Z,75.33
2018-11-05T07:02:28.592Z,65.47
2018-11-05T07:05:05.586Z,74.87
2018-11-05T07:07:43.062Z,83.60
2018-11-05T07:10:17.912Z,84.67
2018-11-05T07:12:52.340Z,84.47
2018-11-05T07:15:28.315Z,86.93
2018-11-05T07:18:10.422Z,84.07
2018-11-05T07:20:54.638Z,83.57
2018-11-05T07:23:29.240Z,79.20
2018-11-05T07:26:05.746Z,81.10
2018-11-05T07:28:40.085Z,78.40
2018-11-05T07:31:14.157Z,86.10
2018-11-05T07:33:52.429Z,80.27
2018-11-05T07:36:24.339Z,73.50
2018-11-05T07:39:03.027Z,66.27
2018-11-05T07:41:41.459Z,63.03
2018-11-05T07:44:15.425Z,53.07
2018-11-05T07:46:49.449Z,53.50
2018-11-05T07:49:27.921Z,58.50
2018-11-05T07:52:02.709Z,59.37
2018-11-05T07:54:31.281Z,58.63
2018-11-05T07:57:03.099Z,54.43
2018-11-05T07:59:33.345Z,59.23
2018-11-05T08:02:06.307Z,58.00
2018-11-05T08:04:41.804Z,51.67
2018-11-05T08:07:16.043Z,50.00
2018-11-05T08:09:50.033Z,53.03
2018-11-05T08:12:19.665Z,58.17
2018-11-05T08:15:00.388Z,55.30
2018-11-05T08:17:44.567Z,53.37
2018-11-05T08:20:13.151Z,54.33
2018-11-05T08:22:49.660Z,47.37
2018-11-05T08:25:30.165Z,50.43
2018-11-05T08:28:02.243Z,43.57
2018-11-05T08:30:36.605Z,41.20
2018-11-05T08:33:05.272Z,32.67
2018-11-05T08:35:33.732Z,31.10
2018-11-05T08:38:04.016Z,31.60
2018-11-05T08:40:32.564Z,28.40
2018-11-05T08:43:01.160Z,29.40
2018-11-05T08:45:30.395Z,30.17
2018-11-05T08:47:58.954Z,31.53
2018-11-05T08:50:27.580Z,32.23
2018-11-05T08:52:56.322Z,28.70
2018-11-05T08:55:25.998Z,32.57
2018-11-05T08:57:54.618Z,32.70
2018-11-05T09:00:34.133Z,33.13
2018-11-05T09:03:02.676Z,34.53
2018-11-05T09:05:31.178Z,35.13
2018-11-05T09:07:59.789Z,31.23
2018-11-05T09:10:28.474Z,33.43
2018-11-05T09:12:56.744Z,32.03
2018-11-05T09:15:25.251Z,25.77
2018-11-05T09:17:53.759Z,29.67
2018-11-05T09:20:22.251Z,27.40
2018-11-05T09:22:51.337Z,27.20
2018-11-05T09:25:19.801Z,30.53
2018-11-05T09:27:48.336Z,32.67
2018-11-05T09:30:18.304Z,25.37
2018-11-05T09:32:47.079Z,28.43
2018-11-05T09:35:15.694Z,31.07
2018-11-05T09:37:44.390Z,29.67
2018-11-05T09:40:14.958Z,27.60
2018-11-05T09:42:44.125Z,28.10
2018-11-05T09:45:22.487Z,31.17
2018-11-05T09:47:51.011Z,28.87
2018-11-05T09:50:19.905Z,32.90
2018-11-05T09:52:48.396Z,27.80
2018-11-05T09:55:16.952Z,29.13
2018-11-05T09:57:45.494Z,32.90
2018-11-05T10:00:18.388Z,30.63
2018-11-05T10:02:52.207Z,36.03
2018-11-05T10:05:20.799Z,34.40
2018-11-05T10:07:49.163Z,29.13
2018-11-05T10:10:19.011Z,32.03
2018-11-05T10:12:47.517Z,35.30
2018-11-05T10:15:16.977Z,32.33
2018-11-05T10:17:45.492Z,33.80
2018-11-05T10:20:16.338Z,36.90
2018-11-05T10:22:45.222Z,33.23
2018-11-05T10:25:14.224Z,38.13
2018-11-05T10:27:42.720Z,40.23
2018-11-05T10:30:13.727Z,36.27
2018-11-05T10:32:42.690Z,35.43
2018-11-05T10:35:11.782Z,37.63
2018-11-05T10:37:40.485Z,31.77
2018-11-05T10:40:18.554Z,35.97
2018-11-05T10:42:47.530Z,33.83
2018-11-05T10:45:19.181Z,35.77
2018-11-05T10:47:47.896Z,34.83
2018-11-05T10:50:17.690Z,34.07
2018-11-05T10:52:50.242Z,31.47
2018-11-05T10:55:18.766Z,35.67
2018-11-05T10:57:47.399Z,38.57
2018-11-05T11:00:23.093Z,42.07
2018-11-05T11:02:56.797Z,43.70
2018-11-05T11:05:25.917Z,51.53
2018-11-05T11:07:55.675Z,45.03
2018-11-05T11:10:24.951Z,46.20
2018-11-05T11:12:53.482Z,42.53
2018-11-05T11:15:22.394Z,42.53
2018-11-05T11:17:50.827Z,44.37
2018-11-05T11:20:19.325Z,43.53
2018-11-05T11:22:47.893Z,42.40
2018-11-05T11:25:16.374Z,43.10
2018-11-05T11:27:44.865Z,47.50
2018-11-05T11:30:14.348Z,47.07
2018-11-05T11:32:43.413Z,44.80
2018-11-05T11:35:12.404Z,43.07
2018-11-05T11:37:41.021Z,48.43
2018-11-05T11:40:11.208Z,50.90
2018-11-05T11:42:40.668Z,43.87
2018-11-05T11:45:09.681Z,55.77
2018-11-05T11:47:38.344Z,60.13
2018-11-05T11:50:08.364Z,62.70
2018-11-05T11:52:36.994Z,55.43
2018-11-05T11:55:06.588Z,52.43
2018-11-05T11:57:35.102Z,55.60
2018-11-05T12:00:03.552Z,58.13
2018-11-05T12:02:32.071Z,58.93
2018-11-05T12:05:00.635Z,59.60
2018-11-05T12:07:29.082Z,56.40
2018-11-05T12:09:57.589Z,49.10
2018-11-05T12:12:26.072Z,53.07
2018-11-05T12:14:54.698Z,53.30
2018-11-05T12:17:23.096Z,56.07
2018-11-05T12:19:51.654Z,50.00
2018-11-05T12:22:20.155Z,51.83
2018-11-05T12:24:48.692Z,49.13
2018-11-05T12:27:17.159Z,45.37
2018-11-05T12:29:45.712Z,48.23
2018-11-05T12:32:14.235Z,43.20
2018-11-05T12:34:42.707Z,44.23
2018-11-05T12:37:11.195Z,46.30
2018-11-05T12:39:40.434Z,43.03
2018-11-05T12:42:08.955Z,40.73
2018-11-05T12:44:37.614Z,43.40
2018-11-05T12:47:06.083Z,41.47
2018-11-05T12:49:34.582Z,47.43
2018-11-05T12:52:03.044Z,44.13
2018-11-05T12:54:31.491Z,47.30
2018-11-05T12:56:59.958Z,47.53
2018-11-05T12:59:28.379Z,44.63
2018-11-05T13:01:58.307Z,46.17
2018-11-05T13:04:27.248Z,46.00
2018-11-05T13:06:56.048Z,43.30
2018-11-05T13:09:24.455Z,47.23
2018-11-05T13:11:53.012Z,49.57
2018-11-05T13:14:21.774Z,50.07
2018-11-05T13:16:50.302Z,44.83
2018-11-05T13:19:18.826Z,47.73
2018-11-05T13:21:47.369Z,47.30
2018-11-05T13:24:15.894Z,50.50
2018-11-05T13:26:44.345Z,51.10
2018-11-05T13:29:12.834Z,48.20
2018-11-05T13:31:41.294Z,49.33
2018-11-05T13:34:09.766Z,49.07
2018-11-05T13:36:38.512Z,51.83
2018-11-05T13:39:08.486Z,49.53
2018-11-05T13:41:37.054Z,51.83
2018-11-05T13:44:05.593Z,54.47
2018-11-05T13:46:34.858Z,56.43
2018-11-05T13:49:03.162Z,53.60
2018-11-05T13:51:31.599Z,55.77
2018-11-05T13:54:00.121Z,58.50
2018-11-05T13:56:28.689Z,55.80
2018-11-05T13:58:57.307Z,50.07
2018-11-05T14:01:25.883Z,55.43
2018-11-05T14:03:54.324Z,53.87
2018-11-05T14:06:23.016Z,52.67
2018-11-05T14:08:51.571Z,57.77
2018-11-05T14:11:20.033Z,51.87
2018-11-05T14:13:48.646Z,63.43
2018-11-05T14:16:17.147Z,62.83
2018-11-05T14:18:45.701Z,60.10
2018-11-05T14:21:14.197Z,59.23
2018-11-05T14:23:42.715Z,59.20
2018-11-05T14:26:11.308Z,64.27
2018-11-05T14:28:39.979Z,55.17
2018-11-05T14:31:08.394Z,59.33
2018-11-05T14:33:36.892Z,57.57
2018-11-05T14:36:05.518Z,61.20
2018-11-05T14:38:34.149Z,57.03
2018-11-05T14:41:02.711Z,60.13
2018-11-05T14:43:31.656Z,59.80
2018-11-05T14:46:00.160Z,61.23
2018-11-05T14:48:28.683Z,66.10
2018-11-05T14:50:57.122Z,61.53
2018-11-05T14:53:25.755Z,61.07
2018-11-05T14:55:54.204Z,66.03
2018-11-05T14:58:22.676Z,61.63
2018-11-05T15:00:51.187Z,67.57
2018-11-05T15:03:19.794Z,63.83
2018-11-05T15:05:48.359Z,62.97
2018-11-05T15:08:16.846Z,64.20
2018-11-05T15:10:45.335Z,57.60
2018-11-05T15:13:15.501Z,63.00
2018-11-05T15:15:44.091Z,61.07
2018-11-05T15:18:12.638Z,55.83
2018-11-05T15:20:41.252Z,57.63
2018-11-05T15:23:10.667Z,55.83
2018-11-05T15:25:39.146Z,57.10
2018-11-05T15:28:07.701Z,59.60
2018-11-05T15:30:36.223Z,55.83
2018-11-05T15:33:04.750Z,51.63
2018-11-05T15:35:33.215Z,57.63
2018-11-05T15:38:01.677Z,58.00
2018-11-05T15:40:30.145Z,55.13
2018-11-05T15:42:58.713Z,52.57
2018-11-05T15:45:27.160Z,60.40
2018-11-05T15:47:55.685Z,50.27
2018-11-05T15:50:24.199Z,47.73
2018-11-05T15:52:52.837Z,50.20
2018-11-05T15:55:21.192Z,46.37
2018-11-05T15:57:49.751Z,51.07
2018-11-05T16:00:22.488Z,51.03
2018-11-05T16:02:54.110Z,54.27
2018-11-05T16:05:22.638Z,52.23
2018-11-05T16:07:51.205Z,54.40
2018-11-05T16:10:19.862Z,52.97
2018-11-05T16:12:48.396Z,49.00
2018-11-05T16:15:16.844Z,57.47
2018-11-05T16:17:45.393Z,48.93
2018-11-05T16:20:16.040Z,53.90
2018-11-05T16:22:44.886Z,52.10
2018-11-05T16:25:13.361Z,49.23
2018-11-05T16:27:42.154Z,53.00
2018-11-05T16:30:12.470Z,52.40
2018-11-05T16:32:41.404Z,51.77
2018-11-05T16:35:10.029Z,52.23
2018-11-05T16:37:38.622Z,52.30
2018-11-05T16:40:09.164Z,48.73
2018-11-05T16:42:37.923Z,47.00
2018-11-05T16:45:06.806Z,45.27
2018-11-05T16:47:35.558Z,50.30
2018-11-05T16:50:05.097Z,52.17
2018-11-05T16:52:33.595Z,57.00
2018-11-05T16:55:02.141Z,45.23
2018-11-05T16:57:31.275Z,44.87
2018-11-05T16:59:59.703Z,42.77
2018-11-05T17:02:28.488Z,52.73
2018-11-05T17:04:56.886Z,55.47
2018-11-05T17:07:25.407Z,55.20
2018-11-05T17:09:53.945Z,56.10
2018-11-05T17:12:23.115Z,57.53
2018-11-05T17:14:51.555Z,54.63
2018-11-05T17:17:20.055Z,56.77
2018-11-05T17:19:48.629Z,47.27
2018-11-05T17:22:17.196Z,52.97
2018-11-05T17:24:52.170Z,49.93
2018-11-05T17:27:21.315Z,49.67
2018-11-05T17:29:49.805Z,48.97
2018-11-05T17:32:23.849Z,51.37
2018-11-05T17:38:17.481Z,47.93
2018-11-05T17:40:58.302Z,45.73
2018-11-05T17:43:32.890Z,49.50
2018-11-05T17:46:03.028Z,44.50
2018-11-05T17:48:43.272Z,53.00
2018-11-05T17:51:18.560Z,43.60
2018-11-05T17:54:00.716Z,50.23
2018-11-05T18:23:14.577Z,53.53
2018-11-05T18:28:31.976Z,43.37
2018-11-05T18:41:28.819Z,47.47
2018-11-05T19:14:54.985Z,52.70
2018-11-05T19:38:23.776Z,48.67
2018-11-05T19:41:08.226Z,44.80
2018-11-05T19:43:37.966Z,47.97
2018-11-05T19:46:07.241Z,43.53
2018-11-05T19:58:17.434Z,51.53
2018-11-05T20:09:57.181Z,43.70
2018-11-05T20:15:47.745Z,39.23
2018-11-05T20:23:31.651Z,40.70
2018-11-05T20:26:23.457Z,40.70
2018-11-05T20:34:36.925Z,48.30
2018-11-05T20:43:25.324Z,43.97
2018-11-05T20:49:15.043Z,41.90
2018-11-05T21:03:45.898Z,42.10
2018-11-05T21:12:27.778Z,41.30
2018-11-05T21:24:40.275Z,42.57
2018-11-05T21:27:16.567Z,44.87
2018-11-05T21:29:51.102Z,40.37
2018-11-05T21:32:25.429Z,39.63
2018-11-05T21:35:03.985Z,44.47
2018-11-05T21:37:40.899Z,42.33
2018-11-05T21:40:21.392Z,41.37
2018-11-05T21:42:55.425Z,42.80
2018-11-05T21:45:30.135Z,41.67
2018-11-05T21:48:06.425Z,42.47
2018-11-05T21:50:41.081Z,41.87
2018-11-05T21:53:15.504Z,44.87
2018-11-05T21:55:49.917Z,48.03
2018-11-05T21:58:24.233Z,46.23
2018-11-05T22:00:58.773Z,46.37
2018-11-05T22:03:33.632Z,46.60
2018-11-05T22:06:05.947Z,47.80
2018-11-05T22:08:39.813Z,46.77
2018-11-05T22:11:14.250Z,47.53
2018-11-05T22:13:48.414Z,39.47
2018-11-05T22:16:29.224Z,46.53
2018-11-05T22:19:04.138Z,41.53
2018-11-05T22:24:35.480Z,48.37
2018-11-05T22:27:11.621Z,43.37
2018-11-05T22:29:46.004Z,42.33
2018-11-05T22:32:20.092Z,44.37
2018-11-05T22:35:01.164Z,45.97
2018-11-05T22:37:39.494Z,47.47
2018-11-05T22:40:14.564Z,43.43
2018-11-05T22:42:50.646Z,49.33
2018-11-05T22:45:25.179Z,44.73
2018-11-05T22:47:59.357Z,38.60
2018-11-05T22:50:33.470Z,36.43
2018-11-05T22:53:08.595Z,38.47
2018-11-05T22:55:44.900Z,35.27
2018-11-05T22:58:22.883Z,45.13
2018-11-05T23:01:07.064Z,40.37
2018-11-05T23:03:41.672Z,47.33
2018-11-05T23:06:22.232Z,49.67
2018-11-05T23:08:59.104Z,40.20
2018-11-05T23:11:37.264Z,48.07
2018-11-05T23:14:11.684Z,42.67
2018-11-05T23:16:46.744Z,47.33
2018-11-05T23:19:26.876Z,50.00
2018-11-05T23:22:02.295Z,46.50
2018-11-05T23:24:36.324Z,37.77
2018-11-05T23:27:10.809Z,45.77
2018-11-05T23:29:44.800Z,48.47
2018-11-05T23:32:19.131Z,52.70
2018-11-05T23:34:54.439Z,39.70
2018-11-05T23:37:29.747Z,50.33
2018-11-05T23:40:05.415Z,48.43
2018-11-05T23:42:40.425Z,50.87
2018-11-05T23:45:16.105Z,42.73
2018-11-05T23:47:51.697Z,43.30
2018-11-05T23:50:25.785Z,42.40
2018-11-05T23:53:00.063Z,49.87
2018-11-05T23:55:34.224Z,43.17
2018-11-05T23:58:08.352Z,47.37
